Time;durP1;ratioP1;P1;durP2;ratioP2;P2;SDS_P1;SDS_P2;PMS_P1;PMS_P2;Temp;Humidity;BMP_temperature;BMP_pressure;BME280_temperature;BME280_humidity;BME280_pressure;Samples;Min_cycle;Max_cycle;Signal;HPM_P1;HPM_P2
2022/04/17 00:00:31;;;;;;;25.00;14.55;;;13.00;99.90;;;;;;5010373;28;20719;-58
2022/04/17 00:02:57;;;;;;;24.42;15.25;;;13.00;99.90;;;;;;5010408;28;20226;-58
2022/04/17 00:05:23;;;;;;;26.80;15.10;;;13.00;99.90;;;;;;5010319;28;20178;-58
2022/04/17 00:07:49;;;;;;;25.15;14.20;;;13.00;99.90;;;;;;5010430;28;20174;-58
2022/04/17 00:10:14;;;;;;;22.27;14.13;;;13.00;99.90;;;;;;5010349;28;20578;-58
2022/04/17 00:12:41;;;;;;;22.17;13.30;;;13.00;99.90;;;;;;5010322;28;20232;-58
2022/04/17 00:15:10;;;;;;;20.35;13.77;;;13.00;99.90;;;;;;5010375;28;20228;-58
2022/04/17 00:17:42;;;;;;;23.42;14.25;;;13.00;99.90;;;;;;5010141;28;20317;-58
2022/04/17 00:20:12;;;;;;;24.02;14.65;;;12.90;99.90;;;;;;5010044;28;20281;-58
2022/04/17 00:22:38;;;;;;;23.40;14.63;;;13.00;99.90;;;;;;5010208;28;20293;-58
2022/04/17 00:25:04;;;;;;;22.80;14.35;;;12.90;99.90;;;;;;5010304;28;20684;-59
2022/04/17 00:27:30;;;;;;;27.17;14.53;;;12.80;99.90;;;;;;5010056;28;20179;-58
2022/04/17 00:29:56;;;;;;;23.67;14.20;;;12.70;99.90;;;;;;5010183;28;20178;-59
2022/04/17 00:32:22;;;;;;;26.98;14.40;;;12.60;99.90;;;;;;5009965;28;20650;-58
2022/04/17 00:34:47;;;;;;;25.40;14.77;;;12.60;99.90;;;;;;5010456;28;20638;-58
2022/04/17 00:37:13;;;;;;;25.63;13.98;;;12.50;99.90;;;;;;5012608;28;20633;-58
2022/04/17 00:39:40;;;;;;;26.88;15.43;;;12.50;99.90;;;;;;5013854;28;20167;-58
2022/04/17 00:42:07;;;;;;;28.58;14.80;;;12.50;99.90;;;;;;5012630;28;20239;-59
2022/04/17 00:44:34;;;;;;;27.65;14.52;;;12.50;99.90;;;;;;5013760;28;20177;-58
2022/04/17 00:47:00;;;;;;;21.52;13.45;;;12.40;99.90;;;;;;5013582;28;20193;-58
2022/04/17 00:49:26;;;;;;;24.13;14.30;;;12.40;99.90;;;;;;5013682;28;20249;-58
2022/04/17 00:51:52;;;;;;;23.65;14.98;;;12.40;99.90;;;;;;5012467;28;20657;-58
2022/04/17 00:54:19;;;;;;;28.60;14.57;;;12.40;99.90;;;;;;5013596;28;20631;-58
2022/04/17 00:56:49;;;;;;;21.00;13.45;;;12.30;99.90;;;;;;5013617;28;20170;-58
2022/04/17 00:59:15;;;;;;;24.37;14.20;;;12.30;99.90;;;;;;5013872;28;20233;-58
2022/04/17 01:01:41;;;;;;;20.92;13.45;;;12.20;99.90;;;;;;5013429;28;20202;-58
2022/04/17 01:04:07;;;;;;;24.67;13.45;;;12.30;99.90;;;;;;5013007;28;20213;-59
2022/04/17 01:06:54;;;;;;;21.95;13.02;;;12.20;99.90;;;;;;5012867;28;20182;-59
2022/04/17 01:09:20;;;;;;;23.83;13.10;;;12.20;99.90;;;;;;5013011;28;20203;-59
2022/04/17 01:11:48;;;;;;;20.27;12.87;;;12.20;99.90;;;;;;5013085;28;20202;-58
2022/04/17 01:14:13;;;;;;;20.43;13.13;;;12.10;99.90;;;;;;5012931;28;20185;-58
2022/04/17 01:16:39;;;;;;;20.50;12.87;;;12.10;99.90;;;;;;5013330;28;20179;-58
2022/04/17 01:19:13;;;;;;;21.23;13.20;;;12.10;99.90;;;;;;5012841;28;20182;-59
2022/04/17 01:21:40;;;;;;;22.10;13.32;;;12.10;99.90;;;;;;5013337;28;20313;-59
2022/04/17 01:26:57;;;;;;;21.13;13.13;;;12.20;99.90;;;;;;5013117;28;20597;-58
2022/04/17 01:29:31;;;;;;;21.47;11.90;;;12.20;99.90;;;;;;5012994;28;20626;-58
2022/04/17 01:32:07;;;;;;;19.50;12.63;;;12.20;99.90;;;;;;5013154;28;20550;-58
2022/04/17 01:34:34;;;;;;;24.40;13.55;;;12.20;99.90;;;;;;5013002;28;20626;-58
2022/04/17 01:37:00;;;;;;;21.03;13.17;;;12.20;99.90;;;;;;5013052;28;20586;-58
2022/04/17 01:39:28;;;;;;;19.20;13.27;;;12.20;99.90;;;;;;5013041;28;20182;-58
2022/04/17 01:41:55;;;;;;;19.40;13.27;;;12.10;99.90;;;;;;5012834;28;20211;-58
2022/04/17 01:44:21;;;;;;;24.30;13.80;;;12.10;99.90;;;;;;5012999;28;20209;-59
2022/04/17 01:46:47;;;;;;;22.00;13.80;;;12.10;99.90;;;;;;5012691;28;20273;-58
2022/04/17 01:49:17;;;;;;;19.77;13.67;;;12.00;99.90;;;;;;5012208;28;20702;-58
2022/04/17 01:51:44;;;;;;;24.87;14.47;;;12.00;99.90;;;;;;5012517;28;20177;-59
2022/04/17 01:54:13;;;;;;;21.60;13.82;;;11.90;99.90;;;;;;5012531;28;20273;-59
2022/04/17 01:56:39;;;;;;;24.30;14.87;;;12.00;99.90;;;;;;5012472;28;20167;-59
2022/04/17 01:59:06;;;;;;;21.40;14.23;;;11.90;99.90;;;;;;5012268;28;20225;-59
2022/04/17 02:01:36;;;;;;;45.90;26.63;;;11.90;99.90;;;;;;5012214;28;20210;-59
2022/04/17 02:04:03;;;;;;;28.43;17.07;;;11.90;99.90;;;;;;5010898;28;20167;-58
2022/04/17 02:06:29;;;;;;;32.17;19.00;;;11.90;99.90;;;;;;5012305;28;20244;-58
2022/04/17 02:08:55;;;;;;;133.13;71.83;;;11.90;99.90;;;;;;5012305;28;20174;-59
2022/04/17 02:11:23;;;;;;;28.57;18.13;;;11.90;99.90;;;;;;5012365;28;20261;-59
2022/04/17 02:13:50;;;;;;;31.50;17.47;;;11.90;99.90;;;;;;5012209;28;20171;-58
2022/04/17 02:16:19;;;;;;;25.10;15.90;;;11.90;99.90;;;;;;5012324;28;20265;-58
2022/04/17 02:18:46;;;;;;;24.30;15.40;;;11.80;99.90;;;;;;5012299;28;20193;-58
2022/04/17 02:21:16;;;;;;;30.43;17.73;;;11.70;99.90;;;;;;5012220;28;20676;-58
2022/04/17 02:23:42;;;;;;;23.97;16.13;;;11.70;99.90;;;;;;5012085;28;20238;-58
2022/04/17 02:26:09;;;;;;;27.93;16.63;;;11.70;99.90;;;;;;5012408;28;20174;-58
2022/04/17 02:28:40;;;;;;;27.10;16.80;;;11.70;99.90;;;;;;5012289;28;20185;-58
2022/04/17 02:31:07;;;;;;;25.83;16.50;;;11.60;99.90;;;;;;5012300;28;20180;-58
2022/04/17 02:33:33;;;;;;;28.10;15.67;;;11.60;99.90;;;;;;5012240;28;20179;-59
2022/04/17 02:36:00;;;;;;;29.43;15.87;;;11.60;99.90;;;;;;5012042;28;20224;-58
2022/04/17 02:38:26;;;;;;;29.10;16.60;;;11.60;99.90;;;;;;5011927;28;20174;-58
2022/04/17 02:40:54;;;;;;;29.97;18.03;;;11.50;99.90;;;;;;5011636;28;20210;-58
2022/04/17 02:43:20;;;;;;;33.20;18.10;;;11.40;99.90;;;;;;5012020;28;20167;-59
2022/04/17 02:45:46;;;;;;;28.77;18.37;;;11.40;99.90;;;;;;5011753;28;20205;-59
2022/04/17 02:48:12;;;;;;;29.27;17.60;;;11.40;99.90;;;;;;5011747;28;20228;-59
2022/04/17 02:50:39;;;;;;;28.27;17.63;;;11.50;99.90;;;;;;5011372;28;20174;-59
2022/04/17 02:53:05;;;;;;;31.93;16.47;;;11.40;99.90;;;;;;5011412;28;20740;-59
2022/04/17 02:55:31;;;;;;;28.43;17.23;;;11.40;99.90;;;;;;5011851;28;20174;-59
2022/04/17 02:57:57;;;;;;;30.07;18.40;;;11.30;99.90;;;;;;5011543;28;20258;-59
2022/04/17 03:00:24;;;;;;;30.93;18.87;;;11.30;99.90;;;;;;5010770;28;20233;-58
2022/04/17 03:05:37;;;;;;;28.83;17.73;;;11.30;99.90;;;;;;5011224;28;20225;-58
2022/04/17 03:08:08;;;;;;;29.57;17.60;;;11.20;99.90;;;;;;5011117;28;20174;-58
2022/04/17 03:10:36;;;;;;;27.97;17.37;;;11.20;99.90;;;;;;5011421;28;20724;-58
2022/04/17 03:13:03;;;;;;;31.57;18.47;;;11.10;99.90;;;;;;5009915;28;20207;-58
2022/04/17 03:15:29;;;;;;;30.03;18.00;;;11.10;99.90;;;;;;5011482;28;20182;-58
2022/04/17 03:17:54;;;;;;;31.23;17.87;;;11.00;99.90;;;;;;5011308;28;20250;-60
2022/04/17 03:20:20;;;;;;;33.97;16.87;;;10.90;99.90;;;;;;5011371;28;20237;-58
2022/04/17 03:22:46;;;;;;;32.70;18.53;;;10.90;99.90;;;;;;5009920;28;20661;-58
2022/04/17 03:25:12;;;;;;;31.80;17.63;;;10.80;99.90;;;;;;5010940;28;20182;-58
2022/04/17 03:27:38;;;;;;;26.87;17.27;;;10.80;99.90;;;;;;5010897;28;20661;-58
2022/04/17 03:30:04;;;;;;;32.20;17.67;;;10.70;99.90;;;;;;5010942;28;20194;-58
2022/04/17 03:32:31;;;;;;;27.10;17.40;;;10.70;99.90;;;;;;5010948;28;20200;-58
2022/04/17 03:34:57;;;;;;;28.63;17.83;;;10.60;99.90;;;;;;5010892;28;20192;-58
2022/04/17 03:37:23;;;;;;;30.90;17.93;;;10.60;99.90;;;;;;5010914;28;20163;-58
2022/04/17 03:39:49;;;;;;;32.30;19.80;;;10.60;99.90;;;;;;5010957;28;20174;-59
2022/04/17 03:42:18;;;;;;;32.20;19.80;;;10.50;99.90;;;;;;5010722;28;20603;-58
2022/04/17 03:44:47;;;;;;;35.00;17.97;;;10.40;99.90;;;;;;5010844;28;20698;-58
2022/04/17 03:47:50;;;;;;;31.33;19.33;;;10.50;99.90;;;;;;5010483;28;20205;-58
2022/04/17 03:50:16;;;;;;;27.77;17.40;;;10.50;99.90;;;;;;5010610;28;20177;-58
2022/04/17 03:52:47;;;;;;;30.33;18.90;;;10.40;99.90;;;;;;5010672;28;20230;-58
2022/04/17 03:55:13;;;;;;;30.13;17.57;;;10.40;99.90;;;;;;5010741;28;20181;-58
2022/04/17 03:57:40;;;;;;;31.43;18.67;;;10.40;99.90;;;;;;5010754;28;20253;-58
2022/04/17 04:00:11;;;;;;;30.57;18.63;;;10.30;99.90;;;;;;5010524;28;20178;-58
2022/04/17 04:02:37;;;;;;;36.73;20.27;;;10.30;99.90;;;;;;5010399;28;20170;-58
2022/04/17 04:05:05;;;;;;;30.23;19.13;;;10.20;99.90;;;;;;5010423;28;20178;-58
2022/04/17 04:07:30;;;;;;;33.80;17.90;;;10.20;99.90;;;;;;5010843;28;20182;-58
2022/04/17 04:09:56;;;;;;;31.87;18.70;;;10.20;99.90;;;;;;5010353;28;20665;-58
2022/04/17 04:12:22;;;;;;;27.67;17.33;;;10.20;99.90;;;;;;5013463;28;20246;-58
2022/04/17 04:14:48;;;;;;;31.07;17.57;;;10.20;99.90;;;;;;5014488;28;20182;-58
2022/04/17 04:17:14;;;;;;;31.07;18.53;;;10.20;99.90;;;;;;5014677;28;20197;-58
2022/04/17 04:19:40;;;;;;;30.53;19.40;;;10.10;99.90;;;;;;5014446;28;20645;-58
2022/04/17 04:22:06;;;;;;;29.03;18.67;;;10.00;99.90;;;;;;5014397;28;20314;-59
2022/04/17 04:24:32;;;;;;;35.27;19.73;;;10.00;99.90;;;;;;5014575;28;20591;-59
2022/04/17 04:29:41;;;;;;;31.03;18.47;;;9.90;99.90;;;;;;5014477;28;20221;-59
2022/04/17 04:32:08;;;;;;;29.43;17.73;;;9.90;99.90;;;;;;5014136;28;20198;-59
2022/04/17 04:34:34;;;;;;;32.73;18.80;;;9.90;99.90;;;;;;5014526;28;20167;-59
2022/04/17 04:37:00;;;;;;;33.63;17.90;;;9.90;99.90;;;;;;5014731;28;20175;-59
2022/04/17 04:39:27;;;;;;;32.77;18.97;;;9.90;99.90;;;;;;5012622;28;20182;-59
2022/04/17 04:41:53;;;;;;;30.37;18.47;;;9.90;99.90;;;;;;5013987;28;20685;-59
2022/04/17 04:44:18;;;;;;;33.47;18.30;;;9.90;99.90;;;;;;5014097;28;20257;-58
2022/04/17 04:46:44;;;;;;;31.30;18.07;;;9.90;99.90;;;;;;5013817;28;20181;-58
2022/04/17 04:49:43;;;;;;;32.90;19.13;;;9.90;99.90;;;;;;5014175;28;20532;-58
2022/04/17 04:52:03;;;;;;;31.47;18.33;;;9.80;99.90;;;;;;5012893;28;20262;-58
2022/04/17 04:54:30;;;;;;;32.03;18.03;;;9.80;99.90;;;;;;5013839;28;20644;-59
2022/04/17 04:56:57;;;;;;;28.17;18.43;;;9.20;99.90;;;;;;5013637;28;20178;-59
2022/04/17 04:59:23;;;;;;;33.47;19.47;;;9.80;99.90;;;;;;5013651;28;20174;-59
2022/04/17 05:01:50;;;;;;;30.63;18.70;;;9.80;99.90;;;;;;5013375;28;20256;-59
2022/04/17 05:04:20;;;;;;;35.23;19.60;;;9.70;99.90;;;;;;5013694;28;20203;-59
2022/04/17 05:06:46;;;;;;;31.90;18.50;;;9.70;99.90;;;;;;5013611;28;20166;-59
2022/04/17 05:09:12;;;;;;;30.83;19.33;;;10.00;99.90;;;;;;5013560;28;20205;-58
2022/04/17 05:11:38;;;;;;;34.10;18.37;;;9.80;99.90;;;;;;5013424;28;20236;-59
2022/04/17 05:14:11;;;;;;;30.00;17.60;;;9.80;99.90;;;;;;5013453;28;20337;-59
2022/04/17 05:16:37;;;;;;;29.93;18.23;;;9.80;99.90;;;;;;5013295;28;20179;-59
2022/04/17 05:19:24;;;;;;;31.63;18.30;;;9.90;99.90;;;;;;5012008;28;20731;-59
2022/04/17 05:21:53;;;;;;;26.90;17.47;;;9.90;99.90;;;;;;5013013;28;20681;-59
2022/04/17 05:24:19;;;;;;;29.80;18.13;;;9.90;99.90;;;;;;5012107;28;20171;-59
2022/04/17 05:26:45;;;;;;;30.17;17.70;;;9.90;99.90;;;;;;5013141;28;20194;-59
2022/04/17 05:29:11;;;;;;;33.27;18.37;;;10.00;99.90;;;;;;5011919;28;20265;-59
2022/04/17 05:31:36;;;;;;;33.47;17.67;;;10.00;99.90;;;;;;5013134;28;20257;-59
2022/04/17 05:34:02;;;;;;;30.87;18.33;;;10.00;99.90;;;;;;5013013;28;20585;-59
2022/04/17 05:36:28;;;;;;;30.33;17.80;;;10.00;99.90;;;;;;5014791;28;20174;-60
2022/04/17 05:38:55;;;;;;;30.40;18.80;;;10.10;99.90;;;;;;5015288;28;20250;-60
2022/04/17 05:41:23;;;;;;;32.53;18.60;;;10.10;99.90;;;;;;5012649;28;20289;-59
2022/04/17 05:43:49;;;;;;;28.00;17.03;;;10.10;99.90;;;;;;5012568;28;20183;-59
2022/04/17 05:46:15;;;;;;;29.60;18.40;;;10.20;99.90;;;;;;5012651;28;20528;-59
2022/04/17 05:48:41;;;;;;;31.50;18.60;;;10.20;99.90;;;;;;5012706;28;20178;-59
2022/04/17 05:51:07;;;;;;;32.93;19.13;;;10.20;99.90;;;;;;5011056;28;20182;-59
2022/04/17 05:53:33;;;;;;;34.73;19.70;;;10.20;99.90;;;;;;5012258;28;20221;-59
2022/04/17 05:55:59;;;;;;;29.73;18.97;;;10.30;99.90;;;;;;5012656;28;20171;-59
2022/04/17 05:58:25;;;;;;;35.40;18.43;;;10.30;99.90;;;;;;5012644;28;20202;-59
2022/04/17 06:00:53;;;;;;;31.50;17.77;;;10.30;99.90;;;;;;5012346;28;20218;-59
2022/04/17 06:03:19;;;;;;;33.93;18.73;;;10.30;99.90;;;;;;5012486;28;20175;-59
2022/04/17 06:05:44;;;;;;;30.40;18.10;;;10.30;99.90;;;;;;5012253;28;20181;-59
2022/04/17 06:08:10;;;;;;;30.00;19.03;;;10.30;99.90;;;;;;5012395;28;20573;-59
2022/04/17 06:10:36;;;;;;;30.37;19.37;;;10.30;99.90;;;;;;5012216;28;20600;-59
2022/04/17 06:13:01;;;;;;;32.17;18.93;;;10.30;99.90;;;;;;5012121;28;20539;-59
2022/04/17 06:15:27;;;;;;;36.23;20.10;;;10.40;99.90;;;;;;5012260;28;20167;-59
2022/04/17 06:17:53;;;;;;;33.07;19.33;;;10.40;99.90;;;;;;5012113;28;20170;-58
2022/04/17 06:20:19;;;;;;;33.97;19.77;;;10.50;99.90;;;;;;5012107;28;20562;-59
2022/04/17 06:22:44;;;;;;;32.60;20.23;;;10.50;99.90;;;;;;5012596;28;20680;-59
2022/04/17 06:25:15;;;;;;;31.07;18.77;;;10.60;99.90;;;;;;5012220;28;20878;-58
2022/04/17 06:27:43;;;;;;;31.47;18.40;;;10.70;99.90;;;;;;5010693;28;20889;-59
2022/04/17 06:30:19;;;;;;;32.37;18.50;;;10.70;99.90;;;;;;5011753;28;20198;-59
2022/04/17 06:32:46;;;;;;;32.03;20.33;;;10.60;99.90;;;;;;5011992;28;20174;-59
2022/04/17 06:35:13;;;;;;;33.33;18.90;;;10.60;99.90;;;;;;5011736;28;20657;-59
2022/04/17 06:37:54;;;;;;;35.73;19.50;;;10.70;99.90;;;;;;5011762;28;20186;-59
2022/04/17 06:40:33;;;;;;;35.33;19.33;;;10.80;99.90;;;;;;5011634;28;20205;-59
2022/04/17 06:43:01;;;;;;;32.33;19.53;;;10.80;99.90;;;;;;5011761;28;20179;-59
2022/04/17 06:45:28;;;;;;;36.50;20.20;;;10.90;99.90;;;;;;5011597;28;20179;-59
2022/04/17 06:47:54;;;;;;;34.23;20.30;;;10.90;99.90;;;;;;5011631;28;20204;-59
2022/04/17 06:50:22;;;;;;;36.03;19.17;;;11.00;99.90;;;;;;5011858;28;20186;-59
2022/04/17 06:52:48;;;;;;;36.27;20.87;;;11.00;99.90;;;;;;5011545;28;20308;-59
2022/04/17 06:55:15;;;;;;;37.10;20.80;;;11.00;99.90;;;;;;5011486;28;20247;-59
2022/04/17 06:57:49;;;;;;;37.63;21.40;;;11.20;99.90;;;;;;5011659;28;20181;-59
2022/04/17 07:00:17;;;;;;;37.20;20.70;;;11.20;99.90;;;;;;5011450;28;20171;-59
2022/04/17 07:02:43;;;;;;;33.53;20.80;;;11.30;99.90;;;;;;5011541;28;20206;-59
2022/04/17 07:05:11;;;;;;;35.27;21.10;;;11.50;99.90;;;;;;5011287;28;20249;-59
2022/04/17 07:07:37;;;;;;;34.83;21.27;;;11.60;99.90;;;;;;5011203;28;20321;-59
2022/04/17 07:10:03;;;;;;;36.67;20.70;;;11.60;99.90;;;;;;5011308;28;20266;-59
2022/04/17 07:12:29;;;;;;;37.80;21.77;;;11.70;99.90;;;;;;5011228;28;20171;-59
2022/04/17 07:14:55;;;;;;;37.87;22.60;;;11.70;99.90;;;;;;5011313;28;20186;-59
2022/04/17 07:17:21;;;;;;;36.63;21.23;;;11.70;99.90;;;;;;5011167;28;20175;-59
2022/04/17 07:19:47;;;;;;;41.77;21.63;;;11.70;99.90;;;;;;5010908;28;20532;-59
2022/04/17 07:22:13;;;;;;;37.60;21.47;;;11.70;99.90;;;;;;5010845;28;20685;-59
2022/04/17 07:24:40;;;;;;;37.63;21.73;;;11.80;99.90;;;;;;5010934;28;20171;-59
2022/04/17 07:27:07;;;;;;;36.60;21.80;;;11.90;99.90;;;;;;5010688;28;20216;-59
2022/04/17 07:29:32;;;;;;;38.33;21.90;;;12.00;99.90;;;;;;5010946;28;20174;-59
2022/04/17 07:31:58;;;;;;;37.47;22.43;;;12.20;99.90;;;;;;5010828;28;20641;-59
2022/04/17 07:34:24;;;;;;;40.30;23.07;;;12.20;99.90;;;;;;5010544;28;20174;-58
2022/04/17 07:36:54;;;;;;;40.30;23.17;;;12.20;99.90;;;;;;5010702;28;20182;-58
2022/04/17 07:39:22;;;;;;;37.37;22.17;;;12.20;99.90;;;;;;5009458;28;20174;-58
2022/04/17 07:41:48;;;;;;;37.50;22.40;;;12.20;99.90;;;;;;5010700;28;20202;-58
2022/04/17 07:44:14;;;;;;;35.00;21.63;;;12.20;99.90;;;;;;5011090;28;20228;-58
2022/04/17 07:46:41;;;;;;;41.23;22.43;;;12.20;99.90;;;;;;5010094;28;20167;-59
2022/04/17 07:49:07;;;;;;;46.73;22.43;;;12.20;99.90;;;;;;5009222;28;20624;-59
2022/04/17 07:51:33;;;;;;;33.87;20.73;;;12.40;99.90;;;;;;5010552;28;20305;-59
2022/04/17 07:54:00;;;;;;;39.27;22.57;;;12.60;99.90;;;;;;5010454;28;20222;-59
2022/04/17 07:56:26;;;;;;;41.90;22.73;;;12.60;99.90;;;;;;5010609;28;20170;-58
2022/04/17 07:58:52;;;;;;;38.83;22.47;;;12.70;99.90;;;;;;5010673;28;20572;-59
2022/04/17 08:01:18;;;;;;;34.70;21.60;;;12.90;99.90;;;;;;5010572;28;20345;-59
2022/04/17 08:06:10;;;;;;;38.40;22.13;;;13.90;99.90;;;;;;5010596;28;20237;-59
2022/04/17 08:08:39;;;;;;;35.55;22.27;;;13.60;99.90;;;;;;5010207;28;20215;-60
2022/04/17 08:11:06;;;;;;;36.40;21.83;;;13.80;99.90;;;;;;5010313;28;20223;-59
2022/04/17 08:13:33;;;;;;;36.63;21.85;;;14.70;99.90;;;;;;5010509;28;20159;-59
2022/04/17 08:15:59;;;;;;;37.00;21.33;;;15.10;99.90;;;;;;5010359;28;20205;-59
2022/04/17 08:18:25;;;;;;;33.03;20.85;;;15.70;99.90;;;;;;5010236;28;20170;-59
2022/04/17 08:20:51;;;;;;;35.30;20.90;;;16.50;99.90;;;;;;5010275;28;20213;-57
2022/04/17 08:23:17;;;;;;;37.25;21.80;;;17.40;99.90;;;;;;5010402;28;20173;-58
2022/04/17 08:25:43;;;;;;;36.97;21.17;;;17.50;99.90;;;;;;5010419;28;20178;-58
2022/04/17 08:28:09;;;;;;;33.88;21.95;;;17.40;99.90;;;;;;5010201;28;20171;-58
2022/04/17 08:30:37;;;;;;;31.52;20.45;;;16.90;99.90;;;;;;5010232;28;20190;-58
2022/04/17 08:33:05;;;;;;;33.75;21.75;;;17.20;99.90;;;;;;5009896;28;20178;-58
2022/04/17 08:35:32;;;;;;;35.40;20.98;;;17.20;99.90;;;;;;5010236;28;20174;-58
2022/04/17 08:38:00;;;;;;;34.08;20.52;;;16.30;99.90;;;;;;5010133;28;20171;-58
2022/04/17 08:40:27;;;;;;;32.08;20.65;;;16.40;99.90;;;;;;5010039;28;20664;-58
2022/04/17 08:42:53;;;;;;;32.38;21.08;;;17.30;99.90;;;;;;5010216;28;20285;-58
2022/04/17 08:45:20;;;;;;;31.95;20.30;;;17.10;99.90;;;;;;5010142;28;20514;-59
2022/04/17 08:47:46;;;;;;;31.67;19.92;;;17.20;99.90;;;;;;5010216;28;20171;-58
2022/04/17 08:50:19;;;;;;;30.13;20.30;;;18.50;99.90;;;;;;5010348;28;20644;-59
2022/04/17 08:52:47;;;;;;;34.05;21.23;;;19.70;99.90;;;;;;5010050;28;20301;-58
2022/04/17 08:55:14;;;;;;;30.55;20.48;;;19.10;99.90;;;;;;5010272;28;20186;-58
2022/04/17 08:57:40;;;;;;;33.63;19.05;;;18.40;99.90;;;;;;5010276;28;20708;-58
2022/04/17 09:00:10;;;;;;;27.27;18.42;;;19.20;99.90;;;;;;5013439;28;20178;-58
2022/04/17 09:02:36;;;;;;;28.42;18.50;;;20.10;99.90;;;;;;5013545;28;20203;-58
2022/04/17 09:05:12;;;;;;;32.60;19.73;;;18.90;99.90;;;;;;5013477;28;20257;-58
2022/04/17 09:07:39;;;;;;;27.60;19.13;;;20.10;99.90;;;;;;5013419;28;20657;-58
2022/04/17 09:10:05;;;;;;;28.35;18.95;;;19.60;99.90;;;;;;5013191;28;20261;-58
2022/04/17 09:12:31;;;;;;;28.10;18.23;;;19.80;99.90;;;;;;5013330;28;20178;-58
2022/04/17 09:14:57;;;;;;;31.58;19.67;;;18.10;99.90;;;;;;5013471;28;20171;-58
2022/04/17 09:17:32;;;;;;;31.17;19.92;;;17.80;99.90;;;;;;5013145;28;20193;-58
2022/04/17 09:19:58;;;;;;;33.95;19.75;;;17.10;99.90;;;;;;5013452;28;20266;-58
2022/04/17 09:22:25;;;;;;;29.38;19.63;;;18.20;99.90;;;;;;5013044;28;20305;-58
2022/04/17 09:24:51;;;;;;;28.52;18.42;;;19.00;99.90;;;;;;5013095;28;20197;-58
2022/04/17 09:27:17;;;;;;;32.83;18.95;;;18.00;99.90;;;;;;5012970;28;20174;-58
2022/04/17 09:29:43;;;;;;;28.35;17.92;;;18.80;99.90;;;;;;5013028;28;20264;-58
2022/04/17 09:32:11;;;;;;;24.80;16.58;;;19.70;99.90;;;;;;5012863;28;20175;-58
2022/04/17 09:34:49;;;;;;;27.73;16.55;;;19.10;99.90;;;;;;5012994;28;20178;-59
2022/04/17 09:37:27;;;;;;;30.75;16.67;;;19.50;99.90;;;;;;5013153;28;20186;-59
2022/04/17 09:40:04;;;;;;;27.83;16.35;;;19.10;99.90;;;;;;5012901;28;20637;-58
2022/04/17 09:42:30;;;;;;;22.88;15.85;;;20.40;99.90;;;;;;5012717;28;20265;-58
2022/04/17 09:44:57;;;;;;;25.60;16.15;;;19.70;99.90;;;;;;5012670;28;20253;-58
2022/04/17 09:47:27;;;;;;;27.92;15.55;;;19.20;99.90;;;;;;5012516;28;20228;-58
2022/04/17 09:49:59;;;;;;;24.25;13.45;;;19.10;99.90;;;;;;5012495;28;20237;-59
2022/04/17 09:52:31;;;;;;;23.65;14.77;;;18.20;99.90;;;;;;5012614;28;20258;-59
2022/04/17 09:54:59;;;;;;;23.15;13.10;;;19.60;99.90;;;;;;5012469;28;20186;-57
2022/04/17 09:57:28;;;;;;;23.95;14.55;;;19.60;99.90;;;;;;5012516;28;20693;-59
2022/04/17 10:00:11;;;;;;;23.17;14.02;;;19.20;99.90;;;;;;5012482;28;20170;-59
2022/04/17 10:02:38;;;;;;;26.05;15.60;;;20.50;99.90;;;;;;5012495;28;20649;-59
2022/04/17 10:05:06;;;;;;;21.65;14.50;;;20.40;99.90;;;;;;5012388;28;20211;-59
2022/04/17 10:07:33;;;;;;;22.05;13.68;;;20.60;99.90;;;;;;5012137;28;20178;-59
2022/04/17 10:09:59;;;;;;;19.75;13.25;;;19.70;99.90;;;;;;5011824;28;20195;-59
2022/04/17 10:12:25;;;;;;;19.08;13.35;;;21.20;99.90;;;;;;5012181;28;20159;-59
2022/04/17 10:14:52;;;;;;;19.33;12.13;;;21.70;99.90;;;;;;5012082;28;20178;-59
2022/04/17 10:17:22;;;;;;;16.60;10.98;;;20.20;99.90;;;;;;5011998;28;20550;-59
2022/04/17 10:19:49;;;;;;;16.52;9.95;;;20.20;99.90;;;;;;5012065;28;20182;-60
2022/04/17 10:22:18;;;;;;;12.45;8.93;;;21.70;99.90;;;;;;5012061;28;20247;-59
2022/04/17 10:24:51;;;;;;;16.85;10.98;;;21.30;99.90;;;;;;5012023;28;20650;-58
2022/04/17 10:27:23;;;;;;;22.45;9.38;;;21.30;99.90;;;;;;5011972;28;20170;-58
2022/04/17 10:30:14;;;;;;;15.05;9.45;;;20.50;99.90;;;;;;5012009;28;20185;-58
2022/04/17 10:33:08;;;;;;;19.38;10.10;;;21.30;99.90;;;;;;5011987;28;20166;-58
2022/04/17 10:35:52;;;;;;;12.65;8.68;;;20.30;99.90;;;;;;4975786;28;20268;-58
2022/04/17 10:38:39;;;;;;;13.65;9.05;;;21.50;99.90;;;;;;5010435;28;20186;-58
2022/04/17 10:41:12;;;;;;;15.02;9.68;;;21.80;99.90;;;;;;5011677;28;20210;-58
2022/04/17 10:43:47;;;;;;;21.67;10.13;;;21.30;99.90;;;;;;5011549;28;20182;-58
2022/04/17 10:46:17;;;;;;;19.45;9.75;;;22.20;99.90;;;;;;5010355;28;20181;-59
2022/04/17 10:48:49;;;;;;;12.38;8.15;;;21.50;99.90;;;;;;5011634;28;20186;-58
2022/04/17 10:51:26;;;;;;;14.75;9.27;;;21.10;99.90;;;;;;5011524;28;20221;-59
2022/04/17 10:54:06;;;;;;;15.65;9.57;;;21.30;99.90;;;;;;5011588;28;20242;-58
2022/04/17 10:56:57;;;;;;;13.15;8.90;;;21.70;99.90;;;;;;5011509;28;20180;-59
2022/04/17 10:59:28;;;;;;;16.48;9.40;;;21.90;99.90;;;;;;5011302;28;20181;-59
2022/04/17 11:01:59;;;;;;;15.02;9.00;;;22.60;99.90;;;;;;5011186;28;20225;-60
2022/04/17 11:04:29;;;;;;;11.90;8.43;;;22.80;99.90;;;;;;5011063;28;20171;-58
2022/04/17 11:07:04;;;;;;;19.17;9.02;;;22.10;99.90;;;;;;5010705;28;20535;-59
2022/04/17 11:09:31;;;;;;;16.30;8.30;;;22.40;99.90;;;;;;5010932;28;20170;-58
2022/04/17 11:12:17;;;;;;;16.08;8.38;;;21.60;99.90;;;;;;5011023;28;20182;-59
2022/04/17 11:15:15;;;;;;;14.45;8.88;;;22.60;99.90;;;;;;5011303;28;20170;-58
2022/04/17 11:17:42;;;;;;;16.88;8.20;;;23.70;99.90;;;;;;5002936;28;20186;-59
2022/04/17 11:20:09;;;;;;;11.38;8.25;;;23.90;99.90;;;;;;5010841;28;20163;-59
2022/04/17 11:22:38;;;;;;;15.45;8.25;;;23.70;99.90;;;;;;5010399;28;20212;-58
2022/04/17 11:25:11;;;;;;;12.88;7.03;;;21.70;99.90;;;;;;5010750;28;20541;-58
2022/04/17 11:27:46;;;;;;;10.07;7.75;;;22.30;99.90;;;;;;5010875;28;20248;-59
2022/04/17 11:30:14;;;;;;;9.35;6.38;;;23.10;99.90;;;;;;5011247;28;20644;-59
2022/04/17 11:32:40;;;;;;;9.55;6.38;;;22.60;99.90;;;;;;5010786;28;20178;-58
2022/04/17 11:35:23;;;;;;;11.05;6.60;;;22.20;99.90;;;;;;5010549;28;20171;-59
2022/04/17 11:38:12;;;;;;;10.77;6.47;;;23.20;99.90;;;;;;5010482;28;20185;-58
2022/04/17 11:40:41;;;;;;;8.90;5.90;;;23.40;99.90;;;;;;5009927;28;20206;-59
2022/04/17 11:43:15;;;;;;;8.68;6.07;;;24.50;99.90;;;;;;5010756;28;20171;-59
2022/04/17 11:45:42;;;;;;;9.27;5.53;;;24.70;99.90;;;;;;5010988;28;20171;-59
2022/04/17 11:48:14;;;;;;;7.75;4.65;;;24.60;99.90;;;;;;5010240;28;20653;-59
2022/04/17 11:50:41;;;;;;;7.57;4.93;;;23.90;99.90;;;;;;5010527;28;20183;-59
2022/04/17 11:53:11;;;;;;;7.97;4.63;;;23.20;99.90;;;;;;5010176;28;20923;-59
2022/04/17 11:55:38;;;;;;;7.10;4.60;;;22.60;99.90;;;;;;5010275;28;20225;-60
2022/04/17 11:58:10;;;;;;;6.82;4.28;;;23.10;99.90;;;;;;5010500;28;20179;-59
2022/04/17 12:00:36;;;;;;;6.05;3.67;;;22.50;99.90;;;;;;5010323;28;20216;-60
2022/04/17 12:03:05;;;;;;;11.95;3.75;;;23.40;99.90;;;;;;5010133;28;20494;-60
2022/04/17 12:05:32;;;;;;;7.18;4.10;;;22.70;99.90;;;;;;5010202;28;20174;-58
2022/04/17 12:07:57;;;;;;;6.78;3.33;;;21.70;99.90;;;;;;5010317;28;20205;-58
2022/04/17 12:10:23;;;;;;;6.60;3.85;;;21.80;99.90;;;;;;5010088;28;20194;-58
2022/04/17 12:12:49;;;;;;;8.80;3.97;;;22.30;99.90;;;;;;5010377;28;20179;-59
2022/04/17 12:15:15;;;;;;;5.57;3.65;;;22.40;99.90;;;;;;5010210;28;20622;-59
2022/04/17 12:17:42;;;;;;;8.38;3.85;;;22.50;99.90;;;;;;5010553;28;20239;-58
2022/04/17 12:20:13;;;;;;;4.82;3.65;;;23.20;99.90;;;;;;5009138;28;20166;-59
2022/04/17 12:22:41;;;;;;;7.05;3.70;;;22.80;99.90;;;;;;5008200;28;20281;-59
2022/04/17 12:25:18;;;;;;;5.70;3.63;;;22.70;99.90;;;;;;5010298;28;20477;-59
2022/04/17 12:27:48;;;;;;;4.88;3.53;;;21.30;99.90;;;;;;5010160;28;20201;-59
2022/04/17 12:30:22;;;;;;;5.95;3.35;;;21.20;99.90;;;;;;5010412;28;20201;-59
2022/04/17 12:32:49;;;;;;;8.13;3.55;;;21.90;99.90;;;;;;5011941;28;20208;-60
2022/04/17 12:35:25;;;;;;;5.88;3.63;;;22.50;99.90;;;;;;5014067;28;20178;-59
2022/04/17 12:38:04;;;;;;;5.53;3.13;;;23.00;99.90;;;;;;5012575;28;20577;-59
2022/04/17 12:40:31;;;;;;;6.40;3.30;;;23.90;99.90;;;;;;5013807;28;20220;-59
2022/04/17 12:43:16;;;;;;;7.88;2.85;;;23.50;99.90;;;;;;5014120;28;20229;-58
2022/04/17 12:46:04;;;;;;;4.57;3.13;;;23.50;99.90;;;;;;5014003;28;20170;-58
2022/04/17 12:48:34;;;;;;;6.13;3.15;;;22.80;99.90;;;;;;5014211;28;20202;-58